Time;durP1;ratioP1;P1;durP2;ratioP2;P2;SDS_P1;SDS_P2;PMS_P1;PMS_P2;Temp;Humidity;BMP_temperature;BMP_pressure;BME280_temperature;BME280_humidity;BME280_pressure;Samples;Min_cycle;Max_cycle;Signal;HPM_P1;HPM_P2
2022/08/04 00:00:22;;;;;;;3.05;2.50;;;;;;;;;;5023181;28;20172;-65
2022/08/04 00:02:53;;;;;;;6.50;3.25;;;;;;;;;;5028343;28;20112;-65
2022/08/04 00:05:40;;;;;;;7.28;2.50;;;;;;;;;;5026076;28;20069;-65
2022/08/04 00:08:27;;;;;;;4.20;2.22;;;;;;;;;;5023849;28;20450;-65
2022/08/04 00:10:54;;;;;;;4.18;2.53;;;;;;;;;;5030277;28;20013;-65
2022/08/04 00:13:25;;;;;;;3.35;2.30;;;;;;;;;;5019858;28;20096;-65
2022/08/04 00:15:56;;;;;;;4.78;2.50;;;;;;;;;;5027535;28;20030;-65
2022/08/04 00:18:26;;;;;;;4.65;2.80;;;;;;;;;;5025031;28;20068;-65
2022/08/04 00:20:58;;;;;;;4.80;2.67;;;;;;;;;;5025006;28;20033;-65
2022/08/04 00:23:25;;;;;;;4.50;2.80;;;;;;;;;;5024095;28;20029;-65
2022/08/04 00:25:52;;;;;;;6.97;2.38;;;;;;;;;;5025424;28;20557;-65
2022/08/04 00:28:18;;;;;;;6.63;2.78;;;;;;;;;;5020668;28;20014;-65
2022/08/04 00:30:43;;;;;;;5.75;2.58;;;;;;;;;;5021312;28;20056;-65
2022/08/04 00:33:09;;;;;;;3.50;2.60;;;;;;;;;;5028960;28;20025;-65
2022/08/04 00:35:37;;;;;;;4.28;2.40;;;;;;;;;;5030558;28;20036;-65
2022/08/04 00:38:03;;;;;;;3.78;2.78;;;;;;;;;;5024958;28;20042;-65
2022/08/04 00:40:52;;;;;;;4.90;2.50;;;;;;;;;;5030344;28;20018;-65
2022/08/04 00:43:30;;;;;;;4.88;2.40;;;;;;;;;;5025231;28;20124;-65
2022/08/04 00:46:22;;;;;;;4.57;2.53;;;;;;;;;;5019008;28;20132;-65
2022/08/04 00:48:48;;;;;;;6.15;2.75;;;;;;;;;;5023704;28;20030;-65
2022/08/04 00:51:18;;;;;;;6.93;2.47;;;;;;;;;;5022926;28;20124;-65
2022/08/04 00:54:30;;;;;;;7.05;2.88;;;;;;;;;;5028381;28;20126;-65
2022/08/04 00:57:10;;;;;;;5.20;2.65;;;;;;;;;;5012060;28;20514;-65
2022/08/04 01:00:00;;;;;;;4.13;2.45;;;;;;;;;;5023623;28;20121;-65
2022/08/04 01:02:57;;;;;;;5.25;2.83;;;;;;;;;;5027419;28;20132;-65
2022/08/04 01:05:32;;;;;;;6.72;2.88;;;;;;;;;;5028230;28;20029;-65
2022/08/04 01:08:34;;;;;;;5.13;2.88;;;;;;;;;;5024188;28;20442;-65
2022/08/04 01:11:13;;;;;;;5.95;2.85;;;;;;;;;;5037240;28;20063;-65
2022/08/04 01:13:44;;;;;;;6.53;4.60;;;;;;;;;;5051280;28;20452;-65
2022/08/04 01:16:10;;;;;;;7.78;2.83;;;;;;;;;;5033993;28;20037;-65
2022/08/04 01:18:57;;;;;;;5.03;2.70;;;;;;;;;;5027567;28;20111;-65
2022/08/04 01:21:29;;;;;;;6.68;2.92;;;;;;;;;;5030455;28;20060;-65
2022/08/04 01:24:25;;;;;;;5.47;2.70;;;;;;;;;;5027730;28;20034;-65
2022/08/04 01:27:04;;;;;;;8.75;3.75;;;;;;;;;;5020793;28;20030;-65
2022/08/04 01:29:34;;;;;;;9.50;3.28;;;;;;;;;;5026108;28;20166;-65
2022/08/04 01:32:02;;;;;;;5.40;3.03;;;;;;;;;;5028755;28;20083;-65
2022/08/04 01:34:33;;;;;;;6.18;3.00;;;;;;;;;;5028862;28;20018;-65
2022/08/04 01:37:12;;;;;;;4.85;2.80;;;;;;;;;;5028708;28;20041;-65
2022/08/04 01:39:49;;;;;;;6.38;2.80;;;;;;;;;;5028256;28;20030;-65
2022/08/04 01:42:18;;;;;;;4.97;2.63;;;;;;;;;;5030250;28;20051;-65
2022/08/04 01:44:47;;;;;;;6.82;3.50;;;;;;;;;;5029734;28;20091;-65
2022/08/04 01:47:15;;;;;;;3.88;3.13;;;;;;;;;;5030403;28;20532;-65
2022/08/04 01:49:44;;;;;;;5.53;2.58;;;;;;;;;;5020092;28;20022;-65
2022/08/04 01:52:10;;;;;;;5.72;3.40;;;;;;;;;;5031298;28;20045;-65
2022/08/04 01:54:38;;;;;;;7.63;3.30;;;;;;;;;;5027495;28;20060;-65
2022/08/04 01:57:05;;;;;;;6.20;3.08;;;;;;;;;;5029398;28;20040;-65
2022/08/04 01:59:31;;;;;;;8.20;3.33;;;;;;;;;;5026849;28;20056;-65
2022/08/04 02:01:56;;;;;;;4.80;2.63;;;;;;;;;;5026798;28;20053;-65
2022/08/04 02:04:22;;;;;;;6.22;3.10;;;;;;;;;;5030128;28;20067;-65
2022/08/04 02:07:18;;;;;;;9.23;2.80;;;;;;;;;;5026639;28;20038;-65
2022/08/04 02:09:59;;;;;;;5.38;2.80;;;;;;;;;;5022440;28;20040;-65
2022/08/04 02:12:37;;;;;;;6.53;2.97;;;;;;;;;;5028953;28;20052;-65
2022/08/04 02:15:16;;;;;;;5.78;2.80;;;;;;;;;;5028772;28;20033;-65
2022/08/04 02:17:54;;;;;;;4.75;2.95;;;;;;;;;;5023662;28;20050;-65
2022/08/04 02:20:27;;;;;;;7.68;3.08;;;;;;;;;;5018543;28;20040;-65
2022/08/04 02:23:03;;;;;;;6.68;2.90;;;;;;;;;;5030564;28;20029;-65
2022/08/04 02:25:37;;;;;;;8.75;2.78;;;;;;;;;;5029885;28;20108;-65
2022/08/04 02:28:17;;;;;;;5.18;3.13;;;;;;;;;;5028134;28;20041;-65
2022/08/04 02:30:52;;;;;;;6.07;2.72;;;;;;;;;;5028095;28;20523;-65
2022/08/04 02:33:28;;;;;;;5.65;3.38;;;;;;;;;;5022025;28;20041;-65
2022/08/04 02:35:59;;;;;;;5.90;2.95;;;;;;;;;;5026300;28;20519;-65
2022/08/04 02:38:37;;;;;;;5.68;2.95;;;;;;;;;;5023916;28;20048;-65
2022/08/04 02:41:04;;;;;;;7.13;3.35;;;;;;;;;;5028354;28;20091;-65
2022/08/04 02:43:30;;;;;;;7.32;3.17;;;;;;;;;;5030489;28;20053;-65
2022/08/04 02:45:56;;;;;;;6.30;3.28;;;;;;;;;;5031525;28;20459;-65
2022/08/04 02:48:26;;;;;;;6.97;3.28;;;;;;;;;;5031961;28;20077;-65
2022/08/04 02:50:53;;;;;;;12.18;3.50;;;;;;;;;;5027280;28;20132;-65
2022/08/04 02:53:21;;;;;;;7.03;3.10;;;;;;;;;;5009918;28;20037;-65
2022/08/04 02:55:47;;;;;;;6.07;3.13;;;;;;;;;;5023630;28;20083;-65
2022/08/04 02:58:15;;;;;;;8.30;3.20;;;;;;;;;;5029944;28;20477;-65
2022/08/04 03:00:43;;;;;;;5.88;3.65;;;;;;;;;;5027265;28;20048;-65
2022/08/04 03:03:24;;;;;;;6.82;3.58;;;;;;;;;;5027423;28;20038;-66
2022/08/04 03:06:09;;;;;;;8.48;3.30;;;;;;;;;;5026418;28;20033;-65
2022/08/04 03:09:01;;;;;;;9.35;3.40;;;;;;;;;;5021238;28;20084;-65
2022/08/04 03:12:11;;;;;;;7.93;3.55;;;;;;;;;;5020607;28;20086;-65
2022/08/04 03:15:11;;;;;;;10.95;3.20;;;;;;;;;;5019453;28;20033;-65
2022/08/04 03:17:39;;;;;;;7.70;3.58;;;;;;;;;;5021705;28;20510;-65
2022/08/04 03:20:05;;;;;;;7.65;3.70;;;;;;;;;;5022461;28;20029;-65
2022/08/04 03:22:59;;;;;;;8.07;3.80;;;;;;;;;;5027116;28;20411;-65
2022/08/04 03:26:02;;;;;;;7.55;3.75;;;;;;;;;;5022857;28;20128;-65
2022/08/04 03:28:45;;;;;;;7.60;4.00;;;;;;;;;;5029277;28;20040;-65
2022/08/04 03:31:26;;;;;;;9.32;3.80;;;;;;;;;;5027779;28;20046;-65
2022/08/04 03:34:23;;;;;;;11.75;3.90;;;;;;;;;;5025680;28;20557;-65
2022/08/04 03:36:51;;;;;;;6.50;3.50;;;;;;;;;;5025455;28;20064;-65
2022/08/04 03:39:19;;;;;;;7.80;3.88;;;;;;;;;;5026288;28;20099;-65
2022/08/04 03:41:48;;;;;;;5.20;3.47;;;;;;;;;;5024845;28;20037;-65
2022/08/04 03:44:32;;;;;;;11.65;3.58;;;;;;;;;;5022482;28;20056;-65
2022/08/04 03:47:25;;;;;;;5.80;3.08;;;;;;;;;;5023155;28;20038;-65
2022/08/04 03:50:21;;;;;;;7.63;3.15;;;;;;;;;;5022135;28;20025;-65
2022/08/04 03:53:07;;;;;;;7.57;3.55;;;;;;;;;;5026743;28;20029;-65
2022/08/04 03:55:41;;;;;;;6.05;3.40;;;;;;;;;;5025000;28;20470;-65
2022/08/04 03:58:34;;;;;;;8.40;3.35;;;;;;;;;;5029905;28;20033;-65
2022/08/04 04:01:24;;;;;;;9.85;3.65;;;;;;;;;;5016208;28;20045;-65
2022/08/04 04:04:30;;;;;;;8.27;3.60;;;;;;;;;;5008833;28;20042;-65
2022/08/04 04:07:35;;;;;;;9.02;3.97;;;;;;;;;;5008759;28;20038;-65
2022/08/04 04:10:17;;;;;;;6.22;3.55;;;;;;;;;;5020679;28;20041;-65
2022/08/04 04:13:05;;;;;;;7.70;3.60;;;;;;;;;;5019012;28;20670;-65
2022/08/04 04:16:02;;;;;;;8.30;3.45;;;;;;;;;;5022252;28;20053;-65
2022/08/04 04:18:45;;;;;;;11.30;3.65;;;;;;;;;;5010314;28;20099;-65
2022/08/04 04:21:21;;;;;;;;;;;;;;;;;;5028870;28;20511;-65
2022/08/04 04:23:56;;;;;;;8.20;3.63;;;;;;;;;;5025276;28;20317;-65
2022/08/04 04:26:39;;;;;;;8.10;4.00;;;;;;;;;;5029993;28;20044;-65
2022/08/04 04:29:26;;;;;;;8.32;3.67;;;;;;;;;;5027874;28;20045;-65
2022/08/04 04:32:21;;;;;;;9.13;4.10;;;;;;;;;;5022893;28;20033;-65
2022/08/04 04:35:08;;;;;;;11.05;4.07;;;;;;;;;;5008768;28;20117;-65
2022/08/04 04:37:49;;;;;;;15.05;4.05;;;;;;;;;;5025449;28;20732;-65
2022/08/04 04:40:18;;;;;;;7.97;4.05;;;;;;;;;;5025875;28;20152;-65
2022/08/04 04:43:21;;;;;;;9.90;4.63;;;;;;;;;;5021988;28;20042;-65
2022/08/04 04:46:01;;;;;;;8.77;4.15;;;;;;;;;;5020364;28;20542;-65
2022/08/04 04:48:50;;;;;;;7.47;4.00;;;;;;;;;;5023836;28;20553;-65
2022/08/04 04:51:15;;;;;;;6.07;3.30;;;;;;;;;;5022203;28;20044;-65
2022/08/04 04:54:09;;;;;;;6.70;3.53;;;;;;;;;;5026141;28;20058;-65
2022/08/04 04:56:56;;;;;;;7.03;3.15;;;;;;;;;;5024684;28;20091;-65
2022/08/04 04:59:27;;;;;;;9.40;4.15;;;;;;;;;;5029973;28;20059;-65
2022/08/04 05:02:27;;;;;;;10.63;3.92;;;;;;;;;;5021657;28;20029;-65
2022/08/04 05:05:03;;;;;;;7.97;3.80;;;;;;;;;;5021925;28;20018;-65
2022/08/04 05:07:56;;;;;;;9.35;3.90;;;;;;;;;;5020778;28;20101;-65
2022/08/04 05:10:49;;;;;;;7.32;3.38;;;;;;;;;;5027564;28;20092;-65
2022/08/04 05:13:35;;;;;;;10.32;4.50;;;;;;;;;;5040426;28;20038;-65
2022/08/04 05:16:17;;;;;;;6.85;3.60;;;;;;;;;;5021186;28;20045;-65
2022/08/04 05:18:48;;;;;;;7.00;3.78;;;;;;;;;;5024632;28;20091;-65
2022/08/04 05:21:52;;;;;;;9.85;4.47;;;;;;;;;;5021562;28;20034;-65
2022/08/04 05:24:21;;;;;;;8.38;3.90;;;;;;;;;;5016368;28;20053;-65
2022/08/04 05:26:50;;;;;;;11.10;4.32;;;;;;;;;;5025140;28;20615;-65
2022/08/04 05:29:33;;;;;;;8.15;4.22;;;;;;;;;;5024410;28;20033;-65
2022/08/04 05:32:03;;;;;;;9.85;4.28;;;;;;;;;;5016497;28;20125;-65
2022/08/04 05:34:36;;;;;;;7.10;4.20;;;;;;;;;;5020139;28;20164;-65
2022/08/04 05:37:07;;;;;;;9.80;4.65;;;;;;;;;;5020731;28;20160;-65
2022/08/04 05:39:37;;;;;;;10.23;4.60;;;;;;;;;;5014454;28;20034;-65
2022/08/04 05:42:04;;;;;;;7.90;4.95;;;;;;;;;;5015053;28;20037;-65
2022/08/04 05:44:31;;;;;;;8.23;4.30;;;;;;;;;;5027002;28;20029;-65
2022/08/04 05:46:57;;;;;;;7.28;4.30;;;;;;;;;;5028071;28;20029;-65
2022/08/04 05:49:25;;;;;;;9.70;5.22;;;;;;;;;;5027535;28;20014;-65
2022/08/04 05:51:53;;;;;;;11.77;5.00;;;;;;;;;;5027851;28;20103;-65
2022/08/04 05:54:20;;;;;;;11.20;4.70;;;;;;;;;;5029740;28;20057;-65
2022/08/04 05:56:46;;;;;;;7.63;4.60;;;;;;;;;;5017087;28;20041;-65
2022/08/04 05:59:11;;;;;;;10.13;4.40;;;;;;;;;;5036081;28;20033;-65
2022/08/04 06:01:39;;;;;;;12.85;5.15;;;;;;;;;;5024416;28;20029;-65
2022/08/04 06:04:05;;;;;;;7.72;4.70;;;;;;;;;;5026100;28;20049;-65
2022/08/04 06:06:31;;;;;;;9.88;5.15;;;;;;;;;;5020949;28;20034;-65
2022/08/04 06:08:57;;;;;;;9.00;5.22;;;;;;;;;;5027422;28;20099;-65
2022/08/04 06:11:26;;;;;;;8.10;5.13;;;;;;;;;;5024881;28;20056;-65
2022/08/04 06:14:02;;;;;;;10.90;5.50;;;;;;;;;;5024197;28;20022;-65
2022/08/04 06:16:41;;;;;;;8.38;4.95;;;;;;;;;;5025710;28;20035;-65
2022/08/04 06:19:08;;;;;;;11.23;4.85;;;;;;;;;;5027829;28;20163;-65
2022/08/04 06:21:37;;;;;;;10.32;4.40;;;;;;;;;;5027250;28;20030;-65
2022/08/04 06:24:04;;;;;;;9.73;4.65;;;;;;;;;;5027498;28;20034;-65
2022/08/04 06:26:32;;;;;;;8.88;4.13;;;;;;;;;;5026279;28;20052;-65
2022/08/04 06:29:00;;;;;;;8.80;4.18;;;;;;;;;;5020147;28;20055;-65
2022/08/04 06:31:42;;;;;;;11.93;4.35;;;;;;;;;;5024046;28;20069;-65
2022/08/04 06:34:10;;;;;;;8.35;4.60;;;;;;;;;;5023512;28;20052;-65
2022/08/04 06:36:37;;;;;;;7.18;3.70;;;;;;;;;;5025251;28;20034;-66
2022/08/04 06:39:04;;;;;;;8.75;4.35;;;;;;;;;;5021351;28;20073;-65
2022/08/04 06:41:31;;;;;;;7.68;3.50;;;;;;;;;;5024924;28;20045;-65
2022/08/04 06:44:02;;;;;;;10.70;3.95;;;;;;;;;;5017637;28;20193;-66
2022/08/04 06:46:29;;;;;;;7.28;3.35;;;;;;;;;;5024226;28;20027;-65
2022/08/04 06:48:55;;;;;;;7.40;3.17;;;;;;;;;;5026995;28;20068;-65
2022/08/04 06:51:23;;;;;;;12.48;3.55;;;;;;;;;;5024478;28;20064;-65
2022/08/04 06:53:48;;;;;;;8.02;3.60;;;;;;;;;;5024992;28;20041;-65
2022/08/04 06:56:16;;;;;;;7.13;3.42;;;;;;;;;;5020335;28;20103;-65
2022/08/04 06:58:43;;;;;;;5.97;3.25;;;;;;;;;;5026905;28;20072;-65
2022/08/04 07:01:09;;;;;;;11.52;3.35;;;;;;;;;;5024340;28;20042;-65
2022/08/04 07:03:35;;;;;;;6.78;3.38;;;;;;;;;;5019488;28;20041;-65
2022/08/04 07:06:01;;;;;;;7.45;3.65;;;;;;;;;;5026664;28;20034;-65
2022/08/04 07:08:27;;;;;;;7.30;3.50;;;;;;;;;;5028310;28;20938;-65
2022/08/04 07:10:53;;;;;;;7.72;3.63;;;;;;;;;;5027235;28;20026;-65
2022/08/04 07:13:21;;;;;;;11.45;3.85;;;;;;;;;;5026153;28;20025;-65
2022/08/04 07:15:47;;;;;;;8.70;3.92;;;;;;;;;;5025158;28;20450;-65
2022/08/04 07:18:13;;;;;;;7.95;4.40;;;;;;;;;;5027195;28;20084;-66
2022/08/04 07:20:43;;;;;;;8.75;4.25;;;;;;;;;;5035774;28;20510;-65
2022/08/04 07:23:11;;;;;;;8.90;3.88;;;;;;;;;;5042752;28;20025;-65
2022/08/04 07:25:38;;;;;;;7.82;3.47;;;;;;;;;;5018565;28;20404;-66
2022/08/04 07:28:03;;;;;;;7.50;3.83;;;;;;;;;;5023454;28;20080;-66
2022/08/04 07:30:31;;;;;;;6.47;3.17;;;;;;;;;;5024119;28;20030;-66
2022/08/04 07:32:57;;;;;;;8.52;3.33;;;;;;;;;;5025628;28;20033;-66
2022/08/04 07:35:24;;;;;;;5.78;3.30;;;;;;;;;;5026103;28;20029;-66
2022/08/04 07:37:50;;;;;;;10.77;3.90;;;;;;;;;;5020098;28;20018;-66
2022/08/04 07:40:15;;;;;;;8.60;3.60;;;;;;;;;;5022336;28;20443;-66
2022/08/04 07:42:43;;;;;;;6.63;3.33;;;;;;;;;;5025101;28;20040;-66
2022/08/04 07:45:09;;;;;;;5.72;4.10;;;;;;;;;;5024779;28;20115;-66
2022/08/04 07:47:35;;;;;;;9.35;3.85;;;;;;;;;;5023660;28;20510;-66
2022/08/04 07:50:00;;;;;;;6.85;4.15;;;;;;;;;;5008780;28;20523;-66
2022/08/04 07:52:26;;;;;;;7.18;3.95;;;;;;;;;;5024809;28;20487;-67
2022/08/04 07:54:52;;;;;;;8.73;4.03;;;;;;;;;;5028490;28;20051;-66
2022/08/04 07:57:19;;;;;;;7.82;4.07;;;;;;;;;;5026924;28;20024;-66
2022/08/04 07:59:45;;;;;;;8.93;4.32;;;;;;;;;;5022165;28;20583;-67
2022/08/04 08:02:13;;;;;;;7.75;4.63;;;;;;;;;;5022328;28;20033;-66
2022/08/04 08:04:39;;;;;;;8.52;4.63;;;;;;;;;;5024134;28;20059;-66
2022/08/04 08:07:04;;;;;;;6.90;3.95;;;;;;;;;;5023950;28;20069;-66
2022/08/04 08:09:32;;;;;;;9.77;4.47;;;;;;;;;;5023000;28;20541;-66
2022/08/04 08:11:57;;;;;;;6.95;4.25;;;;;;;;;;5026589;28;20033;-66
2022/08/04 08:14:23;;;;;;;8.93;4.30;;;;;;;;;;5025094;28;20036;-66
2022/08/04 08:16:49;;;;;;;7.53;4.25;;;;;;;;;;5016420;28;20064;-66
2022/08/04 08:19:14;;;;;;;10.57;4.50;;;;;;;;;;5010030;28;20048;-66
2022/08/04 08:21:40;;;;;;;9.75;4.32;;;;;;;;;;5036585;28;20442;-66
2022/08/04 08:24:06;;;;;;;12.00;4.85;;;;;;;;;;5027451;28;20561;-66
2022/08/04 08:26:32;;;;;;;10.15;5.40;;;;;;;;;;5019540;28;20566;-66
2022/08/04 08:28:57;;;;;;;13.95;5.05;;;;;;;;;;5024905;28;20026;-67
2022/08/04 08:31:23;;;;;;;8.98;4.90;;;;;;;;;;5024367;28;20026;-66
2022/08/04 08:33:51;;;;;;;9.27;4.85;;;;;;;;;;5023248;28;20057;-67
2022/08/04 08:36:45;;;;;;;9.68;5.35;;;;;;;;;;5019640;28;20411;-66
2022/08/04 08:39:37;;;;;;;12.95;6.28;;;;;;;;;;5023456;28;20534;-66
2022/08/04 08:42:11;;;;;;;12.27;5.80;;;;;;;;;;5009129;28;20045;-66
2022/08/04 08:44:55;;;;;;;11.48;5.47;;;;;;;;;;5025959;28;20029;-66
2022/08/04 08:47:38;;;;;;;11.40;5.05;;;;;;;;;;5020219;28;20126;-66
2022/08/04 08:50:22;;;;;;;12.52;5.50;;;;;;;;;;5021814;28;20042;-66
2022/08/04 08:53:09;;;;;;;10.90;5.30;;;;;;;;;;5022813;28;20025;-66
2022/08/04 08:55:53;;;;;;;16.65;5.45;;;;;;;;;;5024075;28;20045;-66
2022/08/04 08:58:37;;;;;;;12.68;5.25;;;;;;;;;;5025454;28;20033;-66
2022/08/04 09:01:12;;;;;;;12.20;5.13;;;;;;;;;;5018737;28;20037;-66
2022/08/04 09:04:01;;;;;;;12.02;5.10;;;;;;;;;;5020712;28;20037;-66
2022/08/04 09:06:37;;;;;;;9.10;5.47;;;;;;;;;;5016711;28;20041;-66
2022/08/04 09:09:45;;;;;;;10.20;5.63;;;;;;;;;;5021492;28;20044;-66
2022/08/04 09:12:32;;;;;;;12.18;6.35;;;;;;;;;;5016149;28;20737;-66
2022/08/04 09:15:14;;;;;;;12.90;6.95;;;;;;;;;;5016178;28;20037;-66
2022/08/04 09:17:46;;;;;;;20.27;7.95;;;;;;;;;;5020973;28;20064;-66
2022/08/04 09:20:24;;;;;;;15.75;8.32;;;;;;;;;;5022329;28;20098;-64
2022/08/04 09:22:58;;;;;;;21.30;9.32;;;;;;;;;;5012591;28;20025;-64
2022/08/04 09:25:39;;;;;;;17.67;8.80;;;;;;;;;;5011463;28;20089;-64
2022/08/04 09:28:19;;;;;;;17.77;8.38;;;;;;;;;;5018285;28;20038;-64
2022/08/04 09:30:53;;;;;;;13.35;7.32;;;;;;;;;;5027874;28;20033;-64
2022/08/04 09:33:40;;;;;;;16.20;8.75;;;;;;;;;;5022401;28;20036;-65
2022/08/04 09:36:54;;;;;;;17.27;7.97;;;;;;;;;;5026077;28;20106;-66
2022/08/04 09:39:39;;;;;;;13.05;7.47;;;;;;;;;;5028531;28;20033;-66
2022/08/04 09:42:22;;;;;;;18.10;7.75;;;;;;;;;;5023695;28;20160;-66
2022/08/04 09:45:15;;;;;;;15.65;9.05;;;;;;;;;;5023896;28;20039;-66
2022/08/04 09:48:04;;;;;;;16.08;8.43;;;;;;;;;;5025823;28;20030;-66
2022/08/04 09:50:40;;;;;;;13.07;7.82;;;;;;;;;;5023225;28;20029;-66
2022/08/04 09:53:43;;;;;;;17.02;8.10;;;;;;;;;;5025872;28;20102;-65
2022/08/04 09:56:19;;;;;;;13.80;7.47;;;;;;;;;;5022762;28;20427;-67
2022/08/04 09:59:06;;;;;;;18.23;8.98;;;;;;;;;;5028292;28;20036;-66
2022/08/04 10:01:33;;;;;;;16.85;7.82;;;;;;;;;;5024087;28;20026;-66
2022/08/04 10:04:01;;;;;;;16.98;10.63;;;;;;;;;;5023326;28;20889;-66
2022/08/04 10:06:58;;;;;;;12.02;7.20;;;;;;;;;;5024084;28;20053;-66
2022/08/04 10:09:24;;;;;;;14.60;7.95;;;;;;;;;;5024869;28;20522;-66
2022/08/04 10:11:49;;;;;;;19.58;8.02;;;;;;;;;;5022685;28;20057;-66
2022/08/04 10:14:39;;;;;;;18.83;8.07;;;;;;;;;;5019051;28;20057;-66
2022/08/04 10:17:24;;;;;;;14.65;7.28;;;;;;;;;;5021262;28;20120;-66
2022/08/04 10:20:02;;;;;;;14.68;8.75;;;;;;;;;;5030045;28;20029;-66
2022/08/04 10:22:35;;;;;;;14.02;7.75;;;;;;;;;;5023447;28;20033;-67
2022/08/04 10:25:38;;;;;;;15.90;8.10;;;;;;;;;;5023916;28;20423;-66
2022/08/04 10:28:11;;;;;;;14.98;8.07;;;;;;;;;;5019691;28;20049;-67
2022/08/04 10:30:44;;;;;;;15.82;7.22;;;;;;;;;;5019788;28;20487;-66
2022/08/04 10:33:26;;;;;;;12.88;7.18;;;;;;;;;;5018918;28;20396;-66
2022/08/04 10:36:00;;;;;;;14.50;7.68;;;;;;;;;;5018134;28;20037;-66
2022/08/04 10:38:46;;;;;;;18.38;8.10;;;;;;;;;;5015098;28;20053;-66
2022/08/04 10:41:23;;;;;;;13.55;7.32;;;;;;;;;;5013532;28;20646;-67
2022/08/04 10:44:08;;;;;;;15.32;7.22;;;;;;;;;;5016780;28;20033;-66
2022/08/04 10:46:38;;;;;;;14.60;7.22;;;;;;;;;;5020112;28;20033;-67
2022/08/04 10:49:11;;;;;;;14.27;6.90;;;;;;;;;;5011686;28;20034;-68
2022/08/04 10:51:42;;;;;;;;;;;;;;;;;;5016784;28;20030;-68
2022/08/04 10:54:14;;;;;;;13.75;6.63;;;;;;;;;;5021710;28;19929;-68
2022/08/04 10:56:48;;;;;;;13.23;6.65;;;;;;;;;;5009470;28;20558;-68
2022/08/04 10:59:23;;;;;;;12.60;7.10;;;;;;;;;;5042685;28;20029;-68
2022/08/04 11:01:54;;;;;;;12.90;6.70;;;;;;;;;;5026610;28;20021;-68
2022/08/04 11:04:40;;;;;;;14.75;6.95;;;;;;;;;;5029353;28;20076;-68
2022/08/04 11:07:07;;;;;;;14.02;6.60;;;;;;;;;;5017600;28;20038;-68
2022/08/04 11:09:33;;;;;;;20.02;7.47;;;;;;;;;;5019953;28;20037;-68
2022/08/04 11:12:20;;;;;;;13.93;6.82;;;;;;;;;;5012892;28;20068;-68
2022/08/04 11:15:05;;;;;;;16.17;7.55;;;;;;;;;;5018800;28;20041;-67
2022/08/04 11:17:35;;;;;;;18.15;7.40;;;;;;;;;;5025076;28;20116;-68
2022/08/04 11:20:17;;;;;;;16.85;7.45;;;;;;;;;;5018842;28;20041;-68
2022/08/04 11:23:11;;;;;;;14.13;7.03;;;;;;;;;;5018928;28;20810;-68
2022/08/04 11:25:48;;;;;;;13.02;6.43;;;;;;;;;;5019736;28;20099;-68
2022/08/04 11:28:41;;;;;;;13.07;7.28;;;;;;;;;;5023245;28;20038;-68
2022/08/04 11:31:24;;;;;;;15.68;6.80;;;;;;;;;;5022374;28;20045;-68
2022/08/04 11:34:11;;;;;;;15.63;7.53;;;;;;;;;;5021513;28;20049;-68
2022/08/04 11:37:01;;;;;;;13.05;6.95;;;;;;;;;;5014842;28;20113;-68
2022/08/04 11:39:32;;;;;;;15.45;7.70;;;;;;;;;;5027031;28;20557;-69
2022/08/04 11:42:25;;;;;;;17.27;7.88;;;;;;;;;;5018207;28;20042;-68
2022/08/04 11:45:05;;;;;;;18.37;8.90;;;;;;;;;;5016734;28;20045;-68
2022/08/04 11:47:40;;;;;;;17.92;8.02;;;;;;;;;;5012762;28;20033;-68
2022/08/04 11:50:18;;;;;;;17.52;8.38;;;;;;;;;;5018831;28;20430;-68
2022/08/04 11:52:45;;;;;;;17.58;7.22;;;;;;;;;;5020565;28;20078;-68
2022/08/04 11:55:14;;;;;;;16.48;8.70;;;;;;;;;;5022210;28;20048;-68
2022/08/04 11:57:39;;;;;;;16.73;7.22;;;;;;;;;;5014352;28;20038;-68
2022/08/04 12:00:09;;;;;;;19.05;7.15;;;;;;;;;;5019033;28;20037;-68
2022/08/04 12:03:10;;;;;;;15.65;7.45;;;;;;;;;;5017890;28;20056;-68
2022/08/04 12:05:50;;;;;;;14.85;7.15;;;;;;;;;;5019205;28;20522;-68
2022/08/04 12:08:34;;;;;;;14.52;7.68;;;;;;;;;;5020563;28;20037;-68
2022/08/04 12:11:27;;;;;;;14.55;7.65;;;;;;;;;;5048314;28;20048;-68
2022/08/04 12:14:01;;;;;;;17.85;7.82;;;;;;;;;;5014865;28;20025;-68
2022/08/04 12:16:37;;;;;;;20.00;8.70;;;;;;;;;;5016344;28;20021;-68
2022/08/04 12:19:16;;;;;;;18.20;9.00;;;;;;;;;;5018829;28;20037;-68
2022/08/04 12:21:47;;;;;;;16.10;7.85;;;;;;;;;;5016584;28;20037;-68
2022/08/04 12:24:27;;;;;;;19.20;7.18;;;;;;;;;;5017434;28;20037;-68
2022/08/04 12:26:57;;;;;;;18.83;7.97;;;;;;;;;;5012610;28;20511;-68
2022/08/04 12:29:24;;;;;;;20.10;9.32;;;;;;;;;;5026664;28;20163;-68
2022/08/04 12:31:55;;;;;;;22.80;8.30;;;;;;;;;;5020884;28;20032;-68
2022/08/04 12:34:39;;;;;;;21.05;8.27;;;;;;;;;;5018756;28;20074;-68
2022/08/04 12:37:33;;;;;;;21.45;9.40;;;;;;;;;;5017978;28;20079;-68
2022/08/04 12:40:02;;;;;;;23.67;9.70;;;;;;;;;;5016925;28;20042;-68
2022/08/04 12:42:53;;;;;;;20.05;9.02;;;;;;;;;;5016562;28;20069;-68
2022/08/04 12:45:21;;;;;;;22.30;8.98;;;;;;;;;;5023431;28;20045;-69
2022/08/04 12:47:49;;;;;;;27.38;9.07;;;;;;;;;;5026364;28;20029;-68
2022/08/04 12:50:17;;;;;;;24.05;10.23;;;;;;;;;;5027098;28;20112;-68
2022/08/04 12:52:46;;;;;;;21.73;9.07;;;;;;;;;;5010139;28;20535;-68
2022/08/04 12:55:13;;;;;;;17.05;8.10;;;;;;;;;;5020970;28;20080;-67
2022/08/04 12:57:41;;;;;;;17.67;8.27;;;;;;;;;;5020270;28;20115;-68
2022/08/04 13:00:08;;;;;;;20.98;8.30;;;;;;;;;;5021194;28;21209;-68
2022/08/04 13:02:40;;;;;;;19.88;6.88;;;;;;;;;;5023547;28;20029;-68
2022/08/04 13:05:06;;;;;;;25.30;8.93;;;;;;;;;;5017923;28;20033;-68
2022/08/04 13:07:39;;;;;;;18.08;7.97;;;;;;;;;;5020413;28;20024;-68
2022/08/04 13:10:15;;;;;;;21.35;7.75;;;;;;;;;;5036797;28;20029;-68
2022/08/04 13:12:48;;;;;;;18.08;7.07;;;;;;;;;;5050656;28;20025;-68
2022/08/04 13:15:17;;;;;;;24.95;9.02;;;;;;;;;;5027016;28;20407;-68
2022/08/04 13:17:58;;;;;;;23.15;8.57;;;;;;;;;;5019271;28;20095;-68
2022/08/04 13:20:43;;;;;;;22.35;8.90;;;;;;;;;;5019832;28;20513;-68
2022/08/04 13:23:11;;;;;;;21.50;7.82;;;;;;;;;;5012595;28;20117;-68
2022/08/04 13:25:42;;;;;;;18.67;7.75;;;;;;;;;;5010944;28;20021;-68
2022/08/04 13:28:15;;;;;;;21.58;7.85;;;;;;;;;;5026673;28;20506;-68
2022/08/04 13:30:44;;;;;;;21.00;7.40;;;;;;;;;;5028705;28;20072;-68
2022/08/04 13:33:10;;;;;;;16.33;6.05;;;;;;;;;;5019579;28;20038;-68
2022/08/04 13:35:42;;;;;;;15.95;7.00;;;;;;;;;;5034978;28;20025;-68
2022/08/04 13:38:10;;;;;;;12.93;5.90;;;;;;;;;;5032230;28;20120;-68
2022/08/04 13:40:38;;;;;;;11.98;5.10;;;;;;;;;;5029611;28;20029;-68
2022/08/04 13:43:05;;;;;;;13.23;5.65;;;;;;;;;;5022877;28;20041;-68
2022/08/04 13:45:31;;;;;;;10.10;4.72;;;;;;;;;;5021900;28;20075;-68
2022/08/04 13:47:59;;;;;;;12.63;4.88;;;;;;;;;;5023063;28;20037;-68
2022/08/04 13:50:29;;;;;;;13.90;5.55;;;;;;;;;;5020098;28;20051;-68
2022/08/04 13:52:56;;;;;;;11.32;5.38;;;;;;;;;;5030489;28;20025;-66
2022/08/04 13:55:29;;;;;;;11.18;5.63;;;;;;;;;;5023265;28;20049;-66
2022/08/04 13:57:58;;;;;;;16.48;6.47;;;;;;;;;;5021144;28;20103;-66
2022/08/04 14:00:25;;;;;;;11.60;6.47;;;;;;;;;;5022595;28;21267;-66
2022/08/04 14:03:05;;;;;;;13.02;4.93;;;;;;;;;;5021858;28;20037;-66
2022/08/04 14:05:31;;;;;;;10.30;4.80;;;;;;;;;;5022157;28;20037;-66
2022/08/04 14:08:06;;;;;;;8.50;4.78;;;;;;;;;;5022163;28;20027;-66
2022/08/04 14:10:32;;;;;;;7.95;4.07;;;;;;;;;;5020679;28;20862;-66
2022/08/04 14:12:58;;;;;;;12.68;5.95;;;;;;;;;;5022512;28;20029;-66
2022/08/04 14:15:42;;;;;;;11.85;5.75;;;;;;;;;;5023023;28;20056;-66
2022/08/04 14:18:19;;;;;;;9.02;5.28;;;;;;;;;;5018430;28;20125;-66
2022/08/04 14:21:10;;;;;;;11.25;6.55;;;;;;;;;;5019703;28;20038;-66
2022/08/04 14:23:54;;;;;;;11.98;6.60;;;;;;;;;;5019747;28;20041;-66
2022/08/04 14:26:31;;;;;;;13.73;7.07;;;;;;;;;;5019432;28;20082;-66
2022/08/04 14:29:07;;;;;;;13.32;6.50;;;;;;;;;;5023985;28;20032;-65
2022/08/04 14:31:32;;;;;;;11.68;6.03;;;;;;;;;;5027344;28;20045;-66
2022/08/04 14:33:57;;;;;;;13.18;5.85;;;;;;;;;;5017553;28;20046;-66
2022/08/04 14:36:23;;;;;;;14.15;7.05;;;;;;;;;;5018924;28;20033;-66
2022/08/04 14:38:55;;;;;;;11.93;6.35;;;;;;;;;;5018522;28;20049;-66
2022/08/04 14:41:31;;;;;;;15.60;7.00;;;;;;;;;;5020160;28;20038;-66
2022/08/04 14:43:58;;;;;;;18.33;7.63;;;;;;;;;;5021192;28;20638;-66
2022/08/04 14:46:26;;;;;;;13.77;7.05;;;;;;;;;;5012532;28;20034;-66
2022/08/04 14:49:11;;;;;;;15.95;7.68;;;;;;;;;;5024599;28;20033;-66
2022/08/04 14:51:43;;;;;;;18.58;8.02;;;;;;;;;;5009533;28;20084;-66
2022/08/04 14:54:11;;;;;;;17.58;8.88;;;;;;;;;;5012542;28;20045;-66
2022/08/04 14:56:49;;;;;;;14.77;6.85;;;;;;;;;;5015024;28;20046;-66
2022/08/04 14:59:15;;;;;;;16.20;6.75;;;;;;;;;;5022006;28;20041;-66
2022/08/04 15:01:42;;;;;;;12.13;6.63;;;;;;;;;;5018191;28;20044;-66
2022/08/04 15:04:08;;;;;;;14.77;6.57;;;;;;;;;;5019390;28;20034;-66
2022/08/04 15:06:34;;;;;;;15.05;7.53;;;;;;;;;;5025362;28;20531;-66
2022/08/04 15:09:04;;;;;;;12.95;6.85;;;;;;;;;;5019667;28;21209;-66
2022/08/04 15:11:29;;;;;;;12.32;7.03;;;;;;;;;;5018358;28;20572;-66
2022/08/04 15:13:56;;;;;;;13.23;7.05;;;;;;;;;;5023639;28;20033;-66
2022/08/04 15:16:25;;;;;;;13.43;7.65;;;;;;;;;;5018869;28;20028;-66
2022/08/04 15:18:52;;;;;;;14.07;7.85;;;;;;;;;;5017430;28;20044;-66
2022/08/04 15:21:18;;;;;;;15.10;7.80;;;;;;;;;;5019755;28;20053;-66
2022/08/04 15:23:43;;;;;;;15.07;8.60;;;;;;;;;;5021602;28;20087;-66